Time;durP1;ratioP1;P1;durP2;ratioP2;P2;SDS_P1;SDS_P2;PMS_P1;PMS_P2;Temp;Humidity;BMP_temperature;BMP_pressure;BME280_temperature;BME280_humidity;BME280_pressure;Samples;Min_cycle;Max_cycle;Signal;HPM_P1;HPM_P2
2023/03/17 00:01:25;;;;;;;9.02;6.05;;;;;;;7.23;77.71;97850.81;4118438;28;20211;-84
2023/03/17 00:03:29;;;;;;;7.03;6.05;;;;;;;7.21;78.91;97852.69;4106947;28;20281;-82
2023/03/17 00:05:34;;;;;;;7.45;6.65;;;;;;;7.18;77.92;97858.06;4123782;28;20636;-82
2023/03/17 00:07:37;;;;;;;7.60;6.72;;;;;;;7.18;78.05;97856.28;4123824;28;20271;-84
2023/03/17 00:09:40;;;;;;;9.77;6.90;;;;;;;7.19;78.73;97854.53;4128463;28;20292;-88
2023/03/17 00:11:45;;;;;;;9.20;6.22;;;;;;;7.18;78.70;97853.69;4122045;28;20223;-85
2023/03/17 00:13:49;;;;;;;8.40;5.95;;;;;;;7.15;79.08;97851.28;4127231;28;20645;-85
2023/03/17 00:15:54;;;;;;;7.15;5.93;;;;;;;7.12;78.97;97850.63;4136276;28;20258;-84
2023/03/17 00:17:57;;;;;;;7.93;5.97;;;;;;;7.13;78.07;97845.34;4124500;28;20600;-84
2023/03/17 00:20:01;;;;;;;9.18;5.90;;;;;;;7.13;79.26;97841.94;4129564;28;20310;-84
2023/03/17 00:22:05;;;;;;;7.97;5.78;;;;;;;7.12;79.25;97846.28;4124998;28;20312;-85
2023/03/17 00:24:10;;;;;;;8.18;5.90;;;;;;;7.11;78.79;97841.16;4119882;28;20664;-84
2023/03/17 00:26:16;;;;;;;6.47;5.72;;;;;;;7.11;79.46;97834.25;4130256;28;20206;-84
2023/03/17 00:28:23;;;;;;;7.70;6.15;;;;;;;7.10;78.74;97818.78;4124470;28;20259;-84
2023/03/17 00:30:27;;;;;;;7.00;5.95;;;;;;;7.10;79.21;97817.00;4122520;28;20702;-85
2023/03/17 00:32:31;;;;;;;7.53;5.55;;;;;;;7.08;78.95;97818.03;4122569;28;20282;-84
2023/03/17 00:34:35;;;;;;;7.40;5.90;;;;;;;7.06;79.61;97807.75;4136394;28;20593;-84
2023/03/17 00:36:38;;;;;;;6.22;5.57;;;;;;;7.05;78.63;97806.09;4106943;28;20291;-84
2023/03/17 00:38:41;;;;;;;6.85;5.82;;;;;;;7.07;79.75;97816.38;4127069;28;20224;-85
2023/03/17 00:40:44;;;;;;;7.93;5.63;;;;;;;7.04;79.74;97812.19;4123274;28;20670;-84
2023/03/17 00:42:52;;;;;;;8.05;6.07;;;;;;;7.03;79.23;97807.91;4138264;28;20809;-84
2023/03/17 00:44:56;;;;;;;8.52;6.68;;;;;;;6.94;80.17;97799.03;4109652;28;20691;-84
2023/03/17 00:47:00;;;;;;;6.75;5.50;;;;;;;6.92;80.08;97803.47;4125944;28;20686;-85
2023/03/17 00:49:06;;;;;;;9.30;6.75;;;;;;;6.90;80.19;97795.81;4107844;28;20318;-84
2023/03/17 00:51:09;;;;;;;9.65;5.72;;;;;;;6.90;80.00;97793.22;4119421;28;20695;-84
2023/03/17 00:53:13;;;;;;;6.20;5.60;;;;;;;6.88;79.89;97799.41;4122541;28;20238;-84
2023/03/17 00:55:19;;;;;;;7.82;6.10;;;;;;;6.89;79.82;97790.72;4121825;28;20203;-84
2023/03/17 00:57:23;;;;;;;7.47;5.70;;;;;;;6.88;80.10;97789.84;4116239;28;20269;-84
2023/03/17 00:59:29;;;;;;;9.20;6.32;;;;;;;6.86;80.78;97794.28;4103690;28;20201;-85
2023/03/17 01:01:34;;;;;;;9.27;6.40;;;;;;;6.87;79.88;97795.97;4105329;28;20729;-85
2023/03/17 01:03:38;;;;;;;7.40;5.75;;;;;;;6.85;80.78;97792.63;4139433;28;20262;-84
2023/03/17 01:05:41;;;;;;;8.77;6.43;;;;;;;6.80;81.05;97792.06;4123105;28;20592;-84
2023/03/17 01:07:51;;;;;;;7.15;5.57;;;;;;;6.79;80.98;97794.75;4123251;28;20312;-84
2023/03/17 01:09:54;;;;;;;7.70;5.60;;;;;;;6.76;80.61;97790.56;4124989;28;20217;-84
2023/03/17 01:11:59;;;;;;;7.80;5.80;;;;;;;6.78;80.71;97786.16;4131382;28;20298;-84
2023/03/17 01:14:02;;;;;;;7.90;6.65;;;;;;;6.79;80.58;97787.78;4140772;28;21029;-84
2023/03/17 01:16:08;;;;;;;8.27;7.40;;;;;;;6.81;81.19;97777.34;4121275;28;20313;-84
2023/03/17 01:18:15;;;;;;;20.50;12.88;;;;;;;6.81;81.00;97769.56;4126857;28;20303;-85
2023/03/17 01:20:21;;;;;;;11.18;8.85;;;;;;;6.80;80.77;97773.09;4135402;28;20244;-84
2023/03/17 01:22:24;;;;;;;17.05;11.63;;;;;;;6.79;81.40;97768.81;4119259;28;20722;-84
2023/03/17 01:24:28;;;;;;;9.52;6.65;;;;;;;6.81;81.40;97775.59;4107315;28;20206;-84
2023/03/17 01:26:31;;;;;;;7.82;6.03;;;;;;;6.80;80.86;97767.91;4110122;28;20214;-84
2023/03/17 01:28:35;;;;;;;6.50;5.50;;;;;;;6.78;80.93;97767.16;4138515;28;20648;-84
2023/03/17 01:30:39;;;;;;;8.25;6.00;;;;;;;6.78;81.35;97764.56;4127824;28;20263;-85
2023/03/17 01:32:42;;;;;;;8.65;6.40;;;;;;;6.78;81.83;97767.16;4122181;28;20217;-84
2023/03/17 01:34:46;;;;;;;18.38;11.25;;;;;;;6.78;81.78;97760.22;4121497;28;20231;-84
2023/03/17 01:36:49;;;;;;;8.02;6.78;;;;;;;6.77;81.88;97766.31;4122689;28;20262;-84
2023/03/17 01:38:52;;;;;;;5.88;5.20;;;;;;;6.80;81.55;97762.75;4122851;28;20195;-85
2023/03/17 01:40:56;;;;;;;7.28;5.30;;;;;;;6.79;82.01;97764.47;4121465;28;20586;-84
2023/03/17 01:43:00;;;;;;;6.32;5.25;;;;;;;6.77;81.90;97761.16;4124314;28;20219;-84
2023/03/17 01:45:07;;;;;;;6.55;5.28;;;;;;;6.78;82.01;97768.00;4118913;28;20205;-84
2023/03/17 01:47:10;;;;;;;6.10;5.32;;;;;;;6.78;81.23;97762.81;4127338;28;20818;-84
2023/03/17 01:49:20;;;;;;;6.25;5.35;;;;;;;6.76;82.06;97758.66;4123081;28;20215;-84
2023/03/17 01:51:28;;;;;;;7.88;5.03;;;;;;;6.76;82.04;97756.88;4123790;28;20258;-84
2023/03/17 01:53:31;;;;;;;5.75;5.03;;;;;;;6.78;81.43;97754.19;4125618;28;20703;-84
2023/03/17 01:55:35;;;;;;;9.63;6.22;;;;;;;6.81;82.35;97756.59;4130072;28;20209;-85
2023/03/17 01:57:40;;;;;;;8.13;5.15;;;;;;;6.81;81.69;97751.44;4127595;28;20262;-85
2023/03/17 01:59:46;;;;;;;9.48;5.90;;;;;;;6.82;81.58;97758.28;4123853;28;20219;-84
2023/03/17 02:01:53;;;;;;;11.43;8.55;;;;;;;6.83;82.47;97757.38;4115546;28;20204;-84
2023/03/17 02:03:56;;;;;;;6.53;5.43;;;;;;;6.82;82.21;97764.28;4136327;28;20236;-84
2023/03/17 02:06:00;;;;;;;7.90;6.43;;;;;;;6.80;82.33;97763.56;4101817;28;20215;-84
2023/03/17 02:08:10;;;;;;;8.80;6.05;;;;;;;6.81;82.56;97752.28;4124520;28;20296;-83
2023/03/17 02:10:14;;;;;;;7.13;5.50;;;;;;;6.85;82.31;97752.94;4124374;28;20214;-83
2023/03/17 02:12:17;;;;;;;10.77;6.28;;;;;;;6.83;81.85;97755.59;4125808;28;20221;-84
2023/03/17 02:14:24;;;;;;;7.68;6.00;;;;;;;6.83;81.19;97753.00;4120307;28;20225;-84
2023/03/17 02:16:30;;;;;;;9.02;6.65;;;;;;;6.83;81.92;97753.00;4120652;28;20204;-84
2023/03/17 02:18:33;;;;;;;7.13;5.70;;;;;;;6.81;81.77;97746.25;4122388;28;20654;-84
2023/03/17 02:21:24;;;;;;;6.93;5.32;;;;;;;6.80;81.57;97739.41;4119323;28;20206;-84
2023/03/17 02:23:29;;;;;;;9.25;5.90;;;;;;;6.76;82.04;97748.28;4132743;28;20213;-84
2023/03/17 02:25:34;;;;;;;6.88;5.30;;;;;;;6.77;81.79;97742.19;4123243;28;20264;-84
2023/03/17 02:27:40;;;;;;;6.85;5.30;;;;;;;6.77;82.21;97742.19;4124547;28;20201;-84
2023/03/17 02:29:45;;;;;;;5.70;4.90;;;;;;;6.75;82.14;97736.25;4116415;28;20247;-84
2023/03/17 02:31:48;;;;;;;7.78;5.53;;;;;;;6.75;82.48;97737.09;4138640;28;20252;-84
2023/03/17 02:33:52;;;;;;;7.45;5.22;;;;;;;6.76;82.55;97727.56;4124057;28;20579;-84
2023/03/17 02:35:56;;;;;;;8.98;5.63;;;;;;;6.77;82.32;97716.28;4129315;28;20212;-84
2023/03/17 02:37:59;;;;;;;5.82;5.05;;;;;;;6.75;81.72;97713.78;4137574;28;20203;-84
2023/03/17 02:40:08;;;;;;;7.25;4.97;;;;;;;6.73;81.47;97710.41;4139555;28;20210;-84
2023/03/17 02:42:12;;;;;;;5.68;4.95;;;;;;;6.81;81.01;97725.50;4122687;28;20273;-84
2023/03/17 02:44:15;;;;;;;6.70;4.60;;;;;;;6.90;80.36;97724.97;4125474;28;20646;-84
2023/03/17 02:46:18;;;;;;;6.25;5.25;;;;;;;6.95;80.02;97722.97;4139201;28;20299;-84
2023/03/17 02:48:22;;;;;;;5.65;4.85;;;;;;;6.91;80.54;97722.28;4123991;28;20294;-84
2023/03/17 02:50:27;;;;;;;5.38;4.30;;;;;;;6.92;80.16;97717.97;4124452;28;20205;-84
2023/03/17 02:52:31;;;;;;;7.15;4.65;;;;;;;6.92;80.86;97715.38;4118870;28;20200;-84
2023/03/17 02:54:34;;;;;;;6.22;4.50;;;;;;;6.88;80.47;97703.50;4131467;28;20220;-84
2023/03/17 02:56:39;;;;;;;8.02;5.85;;;;;;;6.86;80.61;97708.78;4110633;28;20205;-84
2023/03/17 02:58:43;;;;;;;8.75;5.47;;;;;;;6.88;80.87;97708.69;4108411;28;20339;-83
2023/03/17 03:00:47;;;;;;;6.47;4.75;;;;;;;6.80;81.14;97711.72;4120409;28;20302;-84
2023/03/17 03:02:50;;;;;;;6.07;4.80;;;;;;;6.80;80.92;97723.88;4123720;28;20240;-83
2023/03/17 03:04:53;;;;;;;5.80;5.20;;;;;;;6.74;81.66;97716.44;4108442;28;20247;-84
2023/03/17 03:06:59;;;;;;;8.50;5.22;;;;;;;6.70;81.77;97714.97;4112076;28;20203;-84
2023/03/17 03:09:03;;;;;;;5.35;4.60;;;;;;;6.68;81.97;97709.03;4136636;28;20219;-84
2023/03/17 03:11:06;;;;;;;6.38;5.35;;;;;;;6.67;82.99;97715.97;4134560;28;20330;-84
2023/03/17 03:13:11;;;;;;;5.82;4.88;;;;;;;6.67;82.69;97713.38;4124460;28;20779;-84
2023/03/17 03:15:14;;;;;;;6.65;5.10;;;;;;;6.70;82.62;97712.38;4108140;28;20712;-84
2023/03/17 03:17:18;;;;;;;6.88;4.82;;;;;;;6.70;82.27;97713.19;4121826;28;20298;-84
2023/03/17 03:19:21;;;;;;;7.85;5.57;;;;;;;6.70;82.69;97713.19;4122799;28;20209;-84
2023/03/17 03:21:25;;;;;;;7.78;4.90;;;;;;;6.71;82.79;97714.88;4128465;28;20207;-84
2023/03/17 03:23:28;;;;;;;7.82;4.95;;;;;;;6.72;82.76;97708.78;4137399;28;20200;-84
2023/03/17 03:25:31;;;;;;;7.05;4.80;;;;;;;6.72;82.88;97706.19;4123965;28;20291;-84
2023/03/17 03:27:35;;;;;;;6.22;4.60;;;;;;;6.70;83.07;97702.00;4128298;28;20238;-84
2023/03/17 03:29:40;;;;;;;8.10;4.97;;;;;;;6.71;83.31;97708.88;4124707;28;20652;-84
2023/03/17 03:31:43;;;;;;;7.95;4.93;;;;;;;6.72;83.20;97705.31;4122819;28;20201;-84
2023/03/17 03:33:46;;;;;;;7.20;5.43;;;;;;;6.73;82.87;97702.66;4124960;28;20215;-84
2023/03/17 03:35:50;;;;;;;5.13;4.60;;;;;;;6.73;82.73;97701.81;4122977;28;20227;-84
2023/03/17 03:37:53;;;;;;;5.70;4.80;;;;;;;6.74;83.44;97706.91;4126155;28;20217;-84
2023/03/17 03:39:56;;;;;;;7.15;5.60;;;;;;;6.76;82.68;97701.66;4122064;28;20237;-84
2023/03/17 03:41:59;;;;;;;7.20;5.80;;;;;;;6.76;82.54;97702.47;4121747;28;20682;-84
2023/03/17 03:44:02;;;;;;;7.32;5.85;;;;;;;6.76;82.70;97710.25;4142010;28;20304;-84
2023/03/17 03:46:07;;;;;;;7.28;5.63;;;;;;;6.74;82.77;97716.44;4131715;28;20863;-84
2023/03/17 03:48:10;;;;;;;7.95;5.72;;;;;;;6.73;82.70;97728.56;4139293;28;20263;-84
2023/03/17 03:50:13;;;;;;;7.68;6.22;;;;;;;6.73;82.56;97727.72;4122525;28;20218;-84
2023/03/17 03:52:16;;;;;;;7.85;5.40;;;;;;;6.69;82.36;97716.72;4122855;28;20211;-84
2023/03/17 03:54:19;;;;;;;7.00;5.18;;;;;;;6.65;82.83;97717.00;4127676;28;20259;-83
2023/03/17 03:56:23;;;;;;;6.70;4.88;;;;;;;6.62;82.78;97714.59;4137818;28;20214;-84
2023/03/17 03:58:26;;;;;;;8.10;5.10;;;;;;;6.60;82.42;97714.69;4125733;28;20206;-84
2023/03/17 04:00:29;;;;;;;6.18;4.90;;;;;;;6.61;82.26;97707.72;4123850;28;20840;-84
2023/03/17 04:02:34;;;;;;;6.70;4.95;;;;;;;6.59;82.56;97710.41;4126928;28;20217;-84
2023/03/17 04:04:37;;;;;;;6.78;5.43;;;;;;;6.58;82.63;97724.31;4139732;28;20236;-84
2023/03/17 04:06:40;;;;;;;6.22;4.90;;;;;;;6.57;82.51;97729.56;4120089;28;20212;-84
2023/03/17 04:08:43;;;;;;;7.90;4.93;;;;;;;6.56;82.36;97729.66;4124013;28;20205;-84
2023/03/17 04:10:46;;;;;;;8.90;5.15;;;;;;;6.53;82.22;97730.66;4126880;28;20301;-84
2023/03/17 04:12:50;;;;;;;8.77;6.00;;;;;;;6.51;81.96;97723.91;4137147;28;20202;-84
2023/03/17 04:14:53;;;;;;;6.65;5.00;;;;;;;6.48;82.16;97714.56;4130022;28;20224;-84
2023/03/17 04:16:56;;;;;;;8.55;5.80;;;;;;;6.47;82.46;97717.25;4122052;28;20211;-84
2023/03/17 04:19:01;;;;;;;8.27;5.60;;;;;;;6.47;82.38;97714.66;4123622;28;20243;-84
2023/03/17 04:21:05;;;;;;;8.27;5.53;;;;;;;6.46;82.87;97706.03;4136311;28;20563;-84
2023/03/17 04:23:08;;;;;;;7.95;6.03;;;;;;;6.44;83.03;97701.88;4117614;28;21097;-84
2023/03/17 04:25:13;;;;;;;10.35;6.20;;;;;;;6.42;82.33;97712.34;4122218;28;20216;-84
2023/03/17 04:27:17;;;;;;;7.93;5.40;;;;;;;6.36;82.66;97706.66;4123599;28;20196;-83
2023/03/17 04:29:20;;;;;;;7.40;5.65;;;;;;;6.34;82.54;97714.50;4118691;28;20221;-84
2023/03/17 04:31:23;;;;;;;9.40;5.60;;;;;;;6.32;81.66;97711.19;4128585;28;20213;-83
2023/03/17 04:33:26;;;;;;;8.20;6.13;;;;;;;6.30;82.52;97707.84;4122785;28;20216;-84
2023/03/17 04:35:31;;;;;;;7.20;5.43;;;;;;;6.30;82.71;97713.03;4120721;28;20233;-83
2023/03/17 04:37:34;;;;;;;8.30;5.70;;;;;;;6.31;82.97;97706.91;4100917;28;20275;-84
2023/03/17 04:39:37;;;;;;;9.05;6.20;;;;;;;6.33;82.77;97720.63;4119345;28;20740;-84
2023/03/17 04:41:40;;;;;;;9.85;6.07;;;;;;;6.32;82.79;97705.19;4125349;28;20204;-84
2023/03/17 04:43:43;;;;;;;8.38;6.15;;;;;;;6.33;83.01;97705.09;4124502;28;20736;-84
2023/03/17 04:45:46;;;;;;;8.20;5.97;;;;;;;6.33;82.77;97702.50;4123961;28;21023;-83
2023/03/17 04:47:50;;;;;;;12.98;8.30;;;;;;;6.34;82.89;97705.91;4113225;28;20217;-84
2023/03/17 04:49:53;;;;;;;10.32;6.95;;;;;;;6.31;82.94;97703.50;4128112;28;20245;-84
2023/03/17 04:51:57;;;;;;;9.73;6.35;;;;;;;6.27;82.68;97702.84;4135388;28;20288;-84
2023/03/17 04:54:01;;;;;;;9.88;6.68;;;;;;;6.26;82.91;97702.94;4122822;28;20203;-84
2023/03/17 04:56:04;;;;;;;10.68;6.55;;;;;;;6.25;82.60;97704.69;4125623;28;20231;-84
2023/03/17 04:58:07;;;;;;;8.30;6.10;;;;;;;6.25;82.89;97706.44;4121869;28;20687;-84
2023/03/17 05:00:14;;;;;;;8.52;6.85;;;;;;;6.19;83.28;97701.63;4127091;28;20217;-84
2023/03/17 05:02:18;;;;;;;7.93;5.72;;;;;;;6.15;83.06;97693.19;4140017;28;20208;-84
2023/03/17 05:04:21;;;;;;;9.45;5.90;;;;;;;6.13;83.32;97697.66;4121131;28;20249;-84
2023/03/17 05:06:33;;;;;;;8.45;5.78;;;;;;;6.11;82.75;97696.06;4124327;28;20210;-84
2023/03/17 05:08:38;;;;;;;7.68;5.55;;;;;;;6.08;82.58;97697.06;4128043;28;20606;-84
2023/03/17 05:10:41;;;;;;;9.20;6.57;;;;;;;6.01;83.16;97689.72;4122539;28;20204;-84
2023/03/17 05:12:44;;;;;;;12.15;6.20;;;;;;;5.98;82.96;97689.91;4124387;28;20497;-84
2023/03/17 05:14:47;;;;;;;9.20;5.82;;;;;;;5.94;82.62;97680.66;4120009;28;20300;-84
2023/03/17 05:16:51;;;;;;;9.23;5.70;;;;;;;5.91;82.99;97682.56;4123818;28;20666;-84
2023/03/17 05:18:55;;;;;;;8.68;6.25;;;;;;;5.87;82.64;97681.91;4118611;28;20210;-84
2023/03/17 05:20:58;;;;;;;7.95;6.00;;;;;;;5.85;83.09;97673.41;4126604;28;20640;-84
2023/03/17 05:23:01;;;;;;;8.65;5.50;;;;;;;5.86;82.78;97676.81;4101452;28;20212;-84
2023/03/17 05:25:06;;;;;;;6.80;5.50;;;;;;;5.85;83.42;97677.72;4111813;28;20214;-84
2023/03/17 05:27:09;;;;;;;8.48;6.00;;;;;;;5.81;82.77;97671.09;4105865;28;20693;-83
2023/03/17 05:29:13;;;;;;;8.30;6.20;;;;;;;5.78;83.56;97672.09;4107787;28;20267;-83
2023/03/17 05:31:17;;;;;;;8.73;5.97;;;;;;;5.76;83.40;97662.75;4119578;28;20223;-84
2023/03/17 05:33:21;;;;;;;8.95;6.05;;;;;;;5.72;83.64;97664.63;4109250;28;20221;-84
2023/03/17 05:35:25;;;;;;;8.10;5.80;;;;;;;5.71;83.38;97669.88;4121542;28;20564;-84
2023/03/17 05:37:28;;;;;;;8.25;6.25;;;;;;;5.69;83.19;97666.56;4119423;28;20208;-84
2023/03/17 05:39:31;;;;;;;9.23;6.53;;;;;;;5.69;83.69;97672.56;4103052;28;20222;-84
2023/03/17 05:41:36;;;;;;;8.43;5.70;;;;;;;5.67;83.33;97682.16;4105635;28;20219;-84
2023/03/17 05:43:40;;;;;;;12.55;6.28;;;;;;;5.67;83.30;97681.34;4123378;28;20215;-84
2023/03/17 05:45:43;;;;;;;6.93;5.22;;;;;;;5.65;84.05;97685.75;4120313;28;20204;-84
2023/03/17 05:47:47;;;;;;;8.82;5.50;;;;;;;5.65;83.87;97691.78;4107665;28;20206;-84
2023/03/17 05:49:50;;;;;;;7.32;5.60;;;;;;;5.63;84.39;97697.94;4129819;28;20619;-84
2023/03/17 05:51:54;;;;;;;6.30;5.20;;;;;;;5.61;83.82;97692.84;4134853;28;20885;-84
2023/03/17 05:53:57;;;;;;;7.50;5.43;;;;;;;5.62;83.35;97706.59;4103845;28;20762;-84
2023/03/17 05:56:00;;;;;;;7.03;5.53;;;;;;;5.63;83.66;97701.34;4124751;28;20310;-85
2023/03/17 05:58:05;;;;;;;7.75;5.57;;;;;;;5.63;83.88;97697.94;4121312;28;20218;-85
2023/03/17 06:00:10;;;;;;;9.05;4.90;;;;;;;5.66;84.47;97698.59;4123823;28;20236;-85
2023/03/17 06:02:15;;;;;;;8.27;5.35;;;;;;;5.64;83.87;97700.44;4121371;28;20220;-86
2023/03/17 06:04:18;;;;;;;7.63;5.10;;;;;;;5.62;83.45;97689.34;4123845;28;20247;-85
2023/03/17 06:06:21;;;;;;;8.35;5.43;;;;;;;5.65;83.80;97688.34;4109732;28;20209;-85
2023/03/17 06:08:24;;;;;;;5.75;5.07;;;;;;;5.68;84.02;97691.59;4126141;28;20205;-85
2023/03/17 06:10:27;;;;;;;8.40;5.43;;;;;;;5.72;84.53;97690.50;4109162;28;20301;-85
2023/03/17 06:12:31;;;;;;;7.55;5.53;;;;;;;5.78;84.55;97687.59;4122838;28;20209;-85
2023/03/17 06:14:36;;;;;;;6.85;5.05;;;;;;;5.84;84.30;97692.44;4124800;28;20254;-86
2023/03/17 06:16:39;;;;;;;9.45;5.25;;;;;;;5.94;85.17;97696.19;4124755;28;20249;-85
2023/03/17 06:18:42;;;;;;;7.15;5.35;;;;;;;6.14;85.47;97694.13;4108354;28;20744;-85
2023/03/17 06:20:45;;;;;;;8.38;5.35;;;;;;;6.45;84.86;97699.22;4112408;28;20215;-85
2023/03/17 06:22:48;;;;;;;7.45;5.75;;;;;;;6.73;83.34;97697.47;4125561;28;20209;-85
2023/03/17 06:25:07;;;;;;;7.95;5.50;;;;;;;7.09;83.53;97700.44;4127898;28;20210;-83
2023/03/17 06:27:11;;;;;;;7.32;5.25;;;;;;;7.39;82.31;97701.97;4138331;28;20762;-85
2023/03/17 06:29:14;;;;;;;7.15;4.97;;;;;;;7.57;81.19;97703.44;4119145;28;20211;-84
2023/03/17 06:31:19;;;;;;;7.53;5.55;;;;;;;7.75;79.89;97723.03;4137561;28;20744;-84
2023/03/17 06:33:23;;;;;;;8.98;6.28;;;;;;;7.99;80.08;97733.53;4137259;28;20217;-84
2023/03/17 06:35:27;;;;;;;9.40;5.72;;;;;;;8.10;79.65;97732.84;4111825;28;20238;-84
2023/03/17 06:37:30;;;;;;;8.85;5.35;;;;;;;8.15;78.60;97726.47;4131219;28;20626;-84
2023/03/17 06:39:33;;;;;;;6.55;5.30;;;;;;;8.12;78.05;97726.66;4123779;28;20202;-84
2023/03/17 06:41:36;;;;;;;6.50;5.47;;;;;;;8.04;78.36;97722.84;4135888;28;20207;-83
2023/03/17 06:43:39;;;;;;;8.05;5.57;;;;;;;7.98;79.48;97726.69;4122182;28;20303;-83
2023/03/17 06:45:42;;;;;;;8.88;5.65;;;;;;;7.98;78.27;97728.44;4119147;28;20290;-83
2023/03/17 06:47:47;;;;;;;7.32;5.63;;;;;;;8.06;79.94;97726.19;4122241;28;20238;-84
2023/03/17 06:49:50;;;;;;;7.13;5.50;;;;;;;8.18;80.09;97733.22;4125605;28;20226;-84
2023/03/17 06:51:53;;;;;;;7.78;5.88;;;;;;;8.26;79.03;97729.19;4122577;28;20363;-83
2023/03/17 06:53:56;;;;;;;9.88;6.65;;;;;;;8.37;79.29;97728.50;4126626;28;20242;-83
2023/03/17 06:55:59;;;;;;;8.30;6.15;;;;;;;8.46;78.35;97726.97;4128161;28;20250;-82
2023/03/17 06:58:02;;;;;;;8.35;6.60;;;;;;;8.58;78.73;97725.31;4142423;28;20228;-83
2023/03/17 07:00:07;;;;;;;8.43;6.43;;;;;;;8.71;77.30;97729.59;4126909;28;20309;-83
2023/03/17 07:02:11;;;;;;;8.25;6.50;;;;;;;8.87;78.00;97724.19;4129214;28;20221;-83
2023/03/17 07:04:16;;;;;;;12.88;7.63;;;;;;;9.11;77.75;97732.00;4104498;28;20271;-82
2023/03/17 07:06:19;;;;;;;18.40;12.43;;;;;;;9.41;76.45;97722.91;4127031;28;20246;-83
2023/03/17 07:08:24;;;;;;;16.85;12.85;;;;;;;9.73;75.81;97731.09;4123587;28;20200;-80
2023/03/17 07:10:29;;;;;;;14.95;11.45;;;;;;;9.97;75.57;97740.63;4106982;28;20541;-80
2023/03/17 07:12:33;;;;;;;16.60;12.25;;;;;;;10.10;74.63;97737.03;4127025;28;20298;-81
2023/03/17 07:14:36;;;;;;;14.07;9.52;;;;;;;10.23;74.16;97742.16;4136045;28;20208;-81
2023/03/17 07:16:40;;;;;;;11.93;8.77;;;;;;;10.38;72.50;97747.09;4128484;28;20212;-81
2023/03/17 07:18:43;;;;;;;8.05;7.20;;;;;;;10.39;72.49;97746.16;4113164;28;20256;-81
2023/03/17 07:20:48;;;;;;;8.88;6.95;;;;;;;10.33;72.44;97746.59;4124416;28;20299;-81
2023/03/17 07:22:51;;;;;;;7.50;6.70;;;;;;;10.25;73.27;97743.69;4124065;28;20227;-81
2023/03/17 07:24:54;;;;;;;7.80;5.50;;;;;;;10.42;74.21;97740.72;4142618;28;20215;-81
2023/03/17 07:26:57;;;;;;;6.55;5.53;;;;;;;10.64;72.84;97749.44;4124063;28;20212;-81
2023/03/17 07:29:01;;;;;;;9.68;6.05;;;;;;;10.75;70.93;97749.50;4134607;28;20215;-81
2023/03/17 07:31:07;;;;;;;6.30;5.30;;;;;;;10.80;71.00;97751.75;4126289;28;20235;-81
2023/03/17 07:33:11;;;;;;;8.30;6.47;;;;;;;10.80;71.79;97746.53;4142575;28;20228;-81
2023/03/17 07:35:14;;;;;;;7.17;6.00;;;;;;;10.99;72.09;97748.47;4127635;28;20624;-81
2023/03/17 07:37:20;;;;;;;9.63;5.77;;;;;;;11.14;70.62;97739.50;4129660;28;20659;-81
2023/03/17 07:39:23;;;;;;;7.40;5.60;;;;;;;11.14;70.31;97736.03;4125146;28;20643;-80
2023/03/17 07:41:26;;;;;;;8.40;5.97;;;;;;;11.12;70.75;97730.94;4122613;28;20715;-81
2023/03/17 07:43:29;;;;;;;7.20;5.93;;;;;;;11.10;70.06;97735.44;4123518;28;20699;-80
2023/03/17 07:45:34;;;;;;;7.23;5.97;;;;;;;11.04;71.12;97729.88;4121919;28;21222;-81
2023/03/17 07:47:38;;;;;;;6.70;5.70;;;;;;;11.07;71.83;97740.06;4125812;28;21119;-81
2023/03/17 07:49:41;;;;;;;6.90;5.15;;;;;;;11.15;71.47;97735.91;4119644;28;20640;-81
2023/03/17 07:51:44;;;;;;;7.33;6.20;;;;;;;11.23;71.30;97736.19;4121997;28;20235;-81
2023/03/17 07:53:49;;;;;;;7.83;4.97;;;;;;;11.23;70.82;97732.72;4106920;28;20663;-81
2023/03/17 07:55:52;;;;;;;5.90;5.30;;;;;;;11.16;69.54;97728.94;4122053;28;20649;-81
2023/03/17 07:57:56;;;;;;;12.60;6.67;;;;;;;11.19;70.91;97729.53;4120354;28;21015;-81
2023/03/17 08:00:00;;;;;;;7.03;6.33;;;;;;;11.29;71.87;97730.50;4137814;28;20669;-81
2023/03/17 08:02:15;;;;;;;8.20;5.93;;;;;;;11.34;71.72;97730.97;4138109;28;20657;-83
2023/03/17 08:04:18;;;;;;;6.30;5.60;;;;;;;11.36;70.08;97729.06;4124323;28;21264;-82
2023/03/17 08:06:24;;;;;;;9.23;5.90;;;;;;;11.47;70.80;97727.31;4120168;28;20716;-81
2023/03/17 08:08:28;;;;;;;9.17;6.67;;;;;;;11.75;72.13;97733.84;4117191;28;20682;-82
2023/03/17 08:10:32;;;;;;;12.10;5.87;;;;;;;11.98;71.78;97731.91;4119599;28;20639;-82
2023/03/17 08:12:36;;;;;;;8.77;6.10;;;;;;;12.13;70.13;97735.06;4119183;28;20647;-82
2023/03/17 08:14:40;;;;;;;6.90;5.30;;;;;;;12.25;70.36;97738.34;4107982;28;20624;-82
2023/03/17 08:16:43;;;;;;;8.37;5.47;;;;;;;12.34;69.36;97734.16;4098296;28;20659;-82
2023/03/17 08:18:46;;;;;;;7.17;5.30;;;;;;;12.59;68.83;97733.84;4109227;28;21238;-82
2023/03/17 08:20:50;;;;;;;6.60;5.03;;;;;;;12.79;68.03;97732.06;4116645;28;20639;-82
2023/03/17 08:22:53;;;;;;;6.00;5.03;;;;;;;12.99;67.59;97728.66;4124646;28;20730;-82
2023/03/17 08:24:57;;;;;;;6.93;5.53;;;;;;;13.05;66.69;97736.00;4124114;28;21473;-82
2023/03/17 08:27:01;;;;;;;7.97;5.70;;;;;;;13.03;67.54;97732.66;4143708;28;20618;-82
2023/03/17 08:29:07;;;;;;;7.27;6.53;;;;;;;13.07;66.95;97736.69;4129689;28;20633;-81
2023/03/17 08:31:12;;;;;;;10.17;6.57;;;;;;;13.19;70.09;97746.13;4117551;28;20651;-82
2023/03/17 08:33:15;;;;;;;8.00;6.90;;;;;;;13.35;68.25;97749.09;4139946;28;20637;-82
2023/03/17 08:35:19;;;;;;;9.90;6.73;;;;;;;13.46;67.82;97749.84;4128997;28;21210;-82
2023/03/17 08:37:23;;;;;;;8.33;6.67;;;;;;;13.67;68.74;97748.84;4142747;28;20719;-82
2023/03/17 08:39:26;;;;;;;8.43;6.80;;;;;;;13.82;67.84;97750.16;4126806;28;20648;-82
2023/03/17 08:41:29;;;;;;;9.20;7.00;;;;;;;13.78;66.00;97746.13;4122475;28;20734;-81
2023/03/17 08:43:36;;;;;;;8.13;6.77;;;;;;;13.86;67.25;97743.69;4127684;28;20628;-83
2023/03/17 08:45:39;;;;;;;14.57;7.83;;;;;;;14.10;67.44;97738.94;4108373;28;20644;-82
2023/03/17 08:47:42;;;;;;;9.93;6.77;;;;;;;14.43;67.31;97746.44;4121347;28;20648;-83
2023/03/17 08:49:45;;;;;;;9.60;6.07;;;;;;;14.59;65.95;97750.19;4123057;28;20635;-82
2023/03/17 08:51:48;;;;;;;7.13;5.70;;;;;;;14.82;64.83;97741.88;4124510;28;20639;-82
2023/03/17 08:53:52;;;;;;;6.43;5.37;;;;;;;14.82;63.35;97736.63;4125649;28;20652;-82
2023/03/17 08:55:56;;;;;;;5.83;5.13;;;;;;;14.88;64.54;97740.50;4139571;28;20620;-83
2023/03/17 08:58:00;;;;;;;6.17;5.40;;;;;;;14.97;64.48;97734.41;4138380;28;20734;-82
2023/03/17 09:00:09;;;;;;;10.53;5.10;;;;;;;15.05;62.64;97742.41;4134915;28;20635;-82
2023/03/17 09:02:13;;;;;;;4.53;4.07;;;;;;;15.13;59.13;97727.63;4119346;28;20633;-83
2023/03/17 09:04:16;;;;;;;5.97;4.73;;;;;;;15.15;61.21;97726.53;4124317;28;20748;-83
2023/03/17 09:06:20;;;;;;;6.60;4.30;;;;;;;15.29;62.06;97727.88;4127060;28;20776;-83
2023/03/17 09:08:23;;;;;;;7.43;4.40;;;;;;;15.38;59.83;97724.41;4124231;28;20752;-83
2023/03/17 09:10:27;;;;;;;4.33;3.57;;;;;;;15.50;57.57;97729.38;4125459;28;21028;-83
2023/03/17 09:12:31;;;;;;;7.50;4.10;;;;;;;15.63;58.23;97730.66;4125849;28;20639;-83
2023/03/17 09:14:36;;;;;;;6.50;3.90;;;;;;;15.78;56.86;97729.22;4138233;28;21059;-83
2023/03/17 09:16:48;;;;;;;6.70;3.60;;;;;;;15.91;58.03;97728.91;4106754;28;20699;-83
2023/03/17 09:18:51;;;;;;;5.20;4.10;;;;;;;16.24;63.37;97739.69;4135614;28;20724;-83
2023/03/17 09:20:55;;;;;;;4.73;3.87;;;;;;;16.48;59.07;97747.81;4121113;28;20633;-83
2023/03/17 09:22:58;;;;;;;6.90;3.30;;;;;;;16.66;58.84;97741.63;4113666;28;20736;-83
2023/03/17 09:25:01;;;;;;;4.27;3.57;;;;;;;16.72;55.19;97744.47;4130768;28;20626;-83
2023/03/17 09:27:05;;;;;;;4.70;3.50;;;;;;;16.79;58.21;97747.31;4117507;28;21103;-83
2023/03/17 09:29:08;;;;;;;4.60;3.50;;;;;;;16.91;56.50;97739.03;4127904;28;20653;-83
2023/03/17 09:31:11;;;;;;;4.30;3.60;;;;;;;17.09;55.92;97737.19;4124592;28;21057;-83
2023/03/17 09:33:16;;;;;;;5.10;3.30;;;;;;;17.12;56.87;97726.34;4109580;28;20726;-83
2023/03/17 09:35:19;;;;;;;5.67;3.77;;;;;;;17.22;55.17;97732.41;4126095;28;20632;-84
2023/03/17 09:37:23;;;;;;;4.17;3.37;;;;;;;17.34;55.74;97731.16;4114327;28;20632;-83
2023/03/17 09:39:26;;;;;;;3.70;3.17;;;;;;;17.45;54.82;97725.63;4121931;28;20754;-83
2023/03/17 09:41:51;;;;;;;4.17;3.70;;;;;;;17.61;54.61;97724.72;4124804;28;20638;-83
2023/03/17 09:43:56;;;;;;;5.03;3.03;;;;;;;17.60;53.99;97733.63;4140409;28;20668;-83
2023/03/17 09:46:06;;;;;;;3.40;3.10;;;;;;;17.59;53.32;97737.25;4099123;28;20647;-83
2023/03/17 09:48:28;;;;;;;4.00;2.83;;;;;;;17.59;54.63;97731.13;4130247;28;20680;-83
2023/03/17 09:50:38;;;;;;;3.40;2.80;;;;;;;17.67;55.82;97729.38;4109767;28;20707;-83